createdAt,value
2017-08-23T00:01:55.726Z,99827.13
2017-08-23T00:04:23.740Z,99826.78
2017-08-23T00:06:51.456Z,99826.03
2017-08-23T00:09:19.447Z,99827.92
2017-08-23T00:11:47.320Z,99825.20
2017-08-23T00:14:15.208Z,99824.66
2017-08-23T00:16:42.912Z,99831.92
2017-08-23T00:19:10.717Z,99832.95
2017-08-23T00:21:38.423Z,99825.75
2017-08-23T00:24:06.270Z,99823.92
2017-08-23T00:26:33.862Z,99828.84
2017-08-23T00:29:01.603Z,99824.45
2017-08-23T00:31:29.469Z,99824.47
2017-08-23T00:33:57.196Z,99825.64
2017-08-23T00:36:25.186Z,99813.13
2017-08-23T00:38:53.130Z,99820.66
2017-08-23T00:41:21.139Z,99819.94
2017-08-23T00:43:48.986Z,99815.94
2017-08-23T00:46:16.853Z,99814.50
2017-08-23T00:48:44.717Z,99810.30
2017-08-23T00:51:12.462Z,99812.60
2017-08-23T00:53:40.273Z,99813.33
2017-08-23T00:56:07.930Z,99814.80
2017-08-23T00:58:35.782Z,99809.11
2017-08-23T01:01:03.669Z,99811.36
2017-08-23T01:03:31.397Z,99812.46
2017-08-23T01:05:59.363Z,99814.84
2017-08-23T01:08:27.065Z,99811.56
2017-08-23T01:10:54.921Z,99815.69
2017-08-23T01:13:22.664Z,99805.22
2017-08-23T01:15:50.314Z,99812.47
2017-08-23T01:18:18.295Z,99811.02
2017-08-23T01:20:46.040Z,99810.61
2017-08-23T01:23:14.061Z,99812.77
2017-08-23T01:25:41.772Z,99813.09
2017-08-23T01:28:09.754Z,99814.19
2017-08-23T01:30:37.506Z,99820.33
2017-08-23T01:33:05.324Z,99811.91
2017-08-23T01:35:33.169Z,99814.27
2017-08-23T01:38:00.842Z,99813.73
2017-08-23T01:40:28.516Z,99816.34
2017-08-23T01:42:56.177Z,99815.58
2017-08-23T01:45:23.837Z,99814.91
2017-08-23T01:47:51.673Z,99803.62
2017-08-23T01:50:19.573Z,99813.66
2017-08-23T01:52:47.509Z,99817.30
2017-08-23T01:55:15.448Z,99815.19
2017-08-23T01:57:43.378Z,99819.61
2017-08-23T02:00:11.041Z,99811.74
2017-08-23T02:02:38.746Z,99812.78
2017-08-23T02:05:06.363Z,99812.33
2017-08-23T02:07:34.285Z,99815.88
2017-08-23T02:10:02.304Z,99824.45
2017-08-23T02:12:30.020Z,99824.23
2017-08-23T02:14:58.008Z,99821.91
2017-08-23T02:17:25.754Z,99820.52
2017-08-23T02:19:53.771Z,99825.59
2017-08-23T02:22:21.635Z,99833.45
2017-08-23T02:24:49.300Z,99832.70
2017-08-23T02:27:17.143Z,99834.08
2017-08-23T02:29:45.087Z,99833.88
2017-08-23T02:32:13.051Z,99830.42
2017-08-23T02:34:40.973Z,99838.38
2017-08-23T02:37:08.834Z,99836.89
2017-08-23T02:39:36.502Z,99841.37
2017-08-23T02:42:04.163Z,99842.66
2017-08-23T02:44:32.181Z,99842.66
2017-08-23T02:47:00.001Z,99847.91
2017-08-23T02:49:27.820Z,99848.57
2017-08-23T02:51:55.626Z,99844.57
2017-08-23T02:54:23.500Z,99839.45
2017-08-23T02:56:51.218Z,99850.95
2017-08-23T02:59:19.232Z,99840.87
2017-08-23T03:01:47.079Z,99849.70
2017-08-23T03:04:14.760Z,99850.44
2017-08-23T03:06:42.627Z,99852.68
2017-08-23T03:09:10.358Z,99857.18
2017-08-23T03:11:38.321Z,99862.09
2017-08-23T03:14:06.437Z,99863.59
2017-08-23T03:16:34.158Z,99860.32
2017-08-23T03:19:02.169Z,99865.44
2017-08-23T03:21:30.239Z,99872.61
2017-08-23T03:23:57.957Z,99879.45
2017-08-23T03:26:25.973Z,99886.53
2017-08-23T03:28:53.989Z,99885.90
2017-08-23T03:31:21.708Z,99889.02
2017-08-23T03:33:49.426Z,99889.70
2017-08-23T03:36:17.293Z,99886.55
2017-08-23T03:38:45.440Z,99888.55
2017-08-23T03:41:13.423Z,99894.75
2017-08-23T03:43:41.249Z,99894.92
2017-08-23T03:46:08.958Z,99892.34
2017-08-23T03:48:36.879Z,99893.98
2017-08-23T03:51:04.890Z,99893.73
2017-08-23T03:53:32.611Z,99894.22
2017-08-23T03:56:00.327Z,99902.02
2017-08-23T03:58:28.349Z,99899.30
2017-08-23T04:00:56.358Z,99894.38
2017-08-23T04:03:24.126Z,99892.70
2017-08-23T04:05:52.152Z,99895.27
2017-08-23T04:08:20.010Z,99897.52
2017-08-23T04:10:47.849Z,99893.87
2017-08-23T04:13:15.548Z,99890.12
2017-08-23T04:15:43.382Z,99891.38
2017-08-23T04:18:11.131Z,99889.59
2017-08-23T04:20:39.149Z,99894.36
2017-08-23T04:23:06.805Z,99885.42
2017-08-23T04:25:34.476Z,99891.06
2017-08-23T04:28:02.545Z,99890.73
2017-08-23T04:30:30.386Z,99890.41
2017-08-23T04:32:58.100Z,99892.74
2017-08-23T04:35:26.021Z,99895.75
2017-08-23T04:37:53.626Z,99890.35
2017-08-23T04:40:21.258Z,99897.53
2017-08-23T04:42:49.271Z,99901.07
2017-08-23T04:45:17.113Z,99901.55
2017-08-23T04:47:45.070Z,99899.64
2017-08-23T04:50:13.140Z,99899.62
2017-08-23T04:52:41.005Z,99898.33
2017-08-23T04:55:08.782Z,99897.48
2017-08-23T04:57:36.739Z,99899.15
2017-08-23T05:00:04.516Z,99898.38
2017-08-23T05:02:32.384Z,99895.13
2017-08-23T05:05:00.335Z,99901.52
2017-08-23T05:07:28.321Z,99893.13
2017-08-23T05:09:56.283Z,99898.81
2017-08-23T05:12:24.323Z,99894.37
2017-08-23T05:14:52.007Z,99889.44
2017-08-23T05:17:19.860Z,99893.17
2017-08-23T05:19:47.538Z,99895.38
2017-08-23T05:22:15.197Z,99899.12
2017-08-23T05:24:43.074Z,99899.44
2017-08-23T05:27:11.146Z,99899.14
2017-08-23T05:29:38.808Z,99898.06
2017-08-23T05:32:06.635Z,99898.42
2017-08-23T05:34:34.526Z,99897.04
2017-08-23T05:37:02.409Z,99891.27
2017-08-23T05:39:30.065Z,99902.30
2017-08-23T05:41:57.783Z,99897.16
2017-08-23T05:44:25.723Z,99901.03
2017-08-23T05:46:53.319Z,99897.80
2017-08-23T05:49:21.338Z,99896.29
2017-08-23T05:51:48.994Z,99889.16
2017-08-23T05:54:16.653Z,99892.13
2017-08-23T05:56:44.320Z,99893.66
2017-08-23T05:59:12.374Z,99896.80
2017-08-23T06:01:40.256Z,99895.66
2017-08-23T06:04:08.330Z,99896.66
2017-08-23T06:06:36.172Z,99894.13
2017-08-23T06:09:04.063Z,99896.41
2017-08-23T06:11:31.936Z,99894.35
2017-08-23T06:13:59.929Z,99887.55
2017-08-23T06:16:27.772Z,99895.56
2017-08-23T06:18:55.589Z,99890.84
2017-08-23T06:21:23.397Z,99895.32
2017-08-23T06:23:51.125Z,99895.54
2017-08-23T06:26:19.109Z,99892.89
2017-08-23T06:28:46.866Z,99895.03
2017-08-23T06:31:14.776Z,99891.14
2017-08-23T06:33:42.595Z,99892.16
2017-08-23T06:36:10.510Z,99896.59
2017-08-23T06:38:38.331Z,99892.41
2017-08-23T06:41:06.249Z,99890.48
2017-08-23T06:43:34.111Z,99895.19
2017-08-23T06:46:01.930Z,99902.28
2017-08-23T06:48:29.846Z,99903.98
2017-08-23T06:50:57.667Z,99909.42
2017-08-23T06:53:25.655Z,99912.38
2017-08-23T06:55:53.598Z,99914.05
2017-08-23T06:58:21.613Z,99916.89
2017-08-23T07:00:49.474Z,99915.19
2017-08-23T07:03:17.547Z,99917.14
2017-08-23T07:05:45.268Z,99914.87
2017-08-23T07:08:13.279Z,99908.86
2017-08-23T07:10:41.145Z,99915.55
2017-08-23T07:13:09.219Z,99917.89
2017-08-23T07:15:36.877Z,99914.72
2017-08-23T07:18:04.728Z,99911.70
2017-08-23T07:20:32.470Z,99910.27
2017-08-23T07:23:00.070Z,99911.81
2017-08-23T07:25:28.127Z,99911.70
2017-08-23T07:27:56.009Z,99910.62
2017-08-23T07:30:23.671Z,99914.70
2017-08-23T07:32:51.506Z,99911.31
2017-08-23T07:35:19.407Z,99915.31
2017-08-23T07:37:47.118Z,99919.23
2017-08-23T07:40:15.142Z,99919.33
2017-08-23T07:42:42.905Z,99910.89
2017-08-23T07:45:10.842Z,99914.31
2017-08-23T07:47:38.771Z,99908.64
2017-08-23T07:50:06.814Z,99915.05
2017-08-23T07:52:34.519Z,99924.79
2017-08-23T07:55:02.547Z,99915.50
2017-08-23T07:57:30.378Z,99921.81
2017-08-23T07:59:58.122Z,99923.89
2017-08-23T08:02:26.147Z,99918.01
2017-08-23T08:04:54.009Z,99915.83
2017-08-23T08:07:21.720Z,99916.52
2017-08-23T08:09:49.540Z,99917.30
2017-08-23T08:12:17.490Z,99913.19
2017-08-23T08:14:45.447Z,99917.34
2017-08-23T08:17:13.134Z,99916.02
2017-08-23T08:19:40.983Z,99914.60
2017-08-23T08:22:08.587Z,99913.66
2017-08-23T08:24:36.249Z,99910.86
2017-08-23T08:27:04.201Z,99923.03
2017-08-23T08:29:32.484Z,99917.20
2017-08-23T08:32:00.346Z,99919.25
2017-08-23T08:34:28.008Z,99917.44
2017-08-23T08:36:55.855Z,99925.00
2017-08-23T08:39:23.799Z,99922.09
2017-08-23T08:41:51.601Z,99917.41
2017-08-23T08:44:19.476Z,99917.66
2017-08-23T08:46:47.474Z,99918.76
2017-08-23T08:49:15.205Z,99922.44
2017-08-23T08:51:43.075Z,99921.31
2017-08-23T08:54:11.076Z,99919.53
2017-08-23T08:56:38.802Z,99911.88
2017-08-23T08:59:06.676Z,99912.31
2017-08-23T09:01:34.727Z,99911.58
2017-08-23T09:04:02.595Z,99916.28
2017-08-23T09:06:30.464Z,99917.50
2017-08-23T09:08:58.328Z,99900.48
2017-08-23T09:11:26.012Z,99907.09
2017-08-23T09:13:53.941Z,99900.64
2017-08-23T09:16:21.659Z,99911.33
2017-08-23T09:18:49.608Z,99906.39
2017-08-23T09:21:17.542Z,99894.78
2017-08-23T09:23:45.410Z,99910.72
2017-08-23T09:26:13.325Z,99907.97
2017-08-23T09:28:41.138Z,99906.33
2017-08-23T09:31:09.151Z,99911.58
2017-08-23T09:33:37.128Z,99907.42
2017-08-23T09:36:04.886Z,99901.27
2017-08-23T09:38:32.954Z,99907.78
2017-08-23T09:41:00.615Z,99900.94
2017-08-23T09:43:28.470Z,99902.81
2017-08-23T09:45:56.191Z,99903.31
2017-08-23T09:48:24.006Z,99909.98
2017-08-23T09:50:51.724Z,99906.83
2017-08-23T09:53:19.690Z,99909.64
2017-08-23T09:55:47.510Z,99910.08
2017-08-23T09:58:15.328Z,99908.52
2017-08-23T10:00:43.190Z,99900.78
2017-08-23T10:03:11.109Z,99899.09
2017-08-23T10:05:38.696Z,99903.33
2017-08-23T10:08:06.744Z,99906.98
2017-08-23T10:10:34.406Z,99905.72
2017-08-23T10:13:02.069Z,99905.23
2017-08-23T10:15:29.931Z,99901.61
2017-08-23T10:17:57.600Z,99908.58
2017-08-23T10:20:25.261Z,99908.59
2017-08-23T10:22:53.141Z,99901.92
2017-08-23T10:25:20.993Z,99887.98
2017-08-23T10:27:48.833Z,99899.59
2017-08-23T10:30:16.504Z,99891.95
2017-08-23T10:32:44.175Z,99888.33
2017-08-23T10:35:12.052Z,99891.47
2017-08-23T10:37:39.916Z,99890.34
2017-08-23T10:40:07.576Z,99890.53
2017-08-23T10:42:35.284Z,99884.33
2017-08-23T10:45:03.421Z,99889.32
2017-08-23T10:47:31.169Z,99880.78
2017-08-23T10:49:58.844Z,99887.19
2017-08-23T10:52:26.507Z,99885.00
2017-08-23T10:54:54.166Z,99894.19
2017-08-23T10:57:21.830Z,99889.26
2017-08-23T10:59:49.540Z,99879.18
2017-08-23T11:02:17.356Z,99885.44
2017-08-23T11:04:45.021Z,99880.44
2017-08-23T11:07:13.060Z,99883.66
2017-08-23T11:09:41.780Z,99884.38
2017-08-23T11:12:09.499Z,99883.53
2017-08-23T11:14:37.388Z,99887.08
2017-08-23T11:17:05.178Z,99867.44
2017-08-23T11:19:32.899Z,99882.52
2017-08-23T11:22:00.600Z,99877.20
2017-08-23T11:24:28.432Z,99868.91
2017-08-23T11:26:56.233Z,99866.94
2017-08-23T11:29:24.301Z,99854.30
2017-08-23T11:31:52.036Z,99863.80
2017-08-23T11:34:20.040Z,99858.45
2017-08-23T11:36:47.899Z,99862.91
2017-08-23T11:39:15.734Z,99863.20
2017-08-23T11:41:43.425Z,99859.86
2017-08-23T11:44:11.300Z,99857.67
2017-08-23T11:46:38.948Z,99864.44
2017-08-23T11:49:06.803Z,99853.83
2017-08-23T11:51:34.495Z,99853.16
2017-08-23T11:54:02.267Z,99858.39
2017-08-23T11:56:30.085Z,99860.61
2017-08-23T11:58:58.073Z,99855.17
2017-08-23T12:01:25.650Z,99839.30
2017-08-23T12:03:53.503Z,99854.26
2017-08-23T12:06:21.473Z,99857.39
2017-08-23T12:08:49.190Z,99847.45
2017-08-23T12:11:17.020Z,99843.24
2017-08-23T12:13:45.029Z,99831.09
2017-08-23T12:16:12.650Z,99835.61
2017-08-23T12:18:40.830Z,99846.92
2017-08-23T12:21:08.889Z,99844.55
2017-08-23T12:23:36.553Z,99831.20
2017-08-23T12:26:04.216Z,99832.20
2017-08-23T12:28:32.082Z,99835.01
2017-08-23T12:30:59.680Z,99829.24
2017-08-23T12:33:27.610Z,99834.12
2017-08-23T12:35:55.586Z,99837.06
2017-08-23T12:38:23.404Z,99836.97
2017-08-23T12:40:51.365Z,99825.02
2017-08-23T12:43:19.001Z,99826.14
2017-08-23T12:45:46.585Z,99820.23
2017-08-23T12:48:14.217Z,99818.92
2017-08-23T12:50:41.916Z,99821.13
2017-08-23T12:53:09.932Z,99826.24
2017-08-23T12:55:37.769Z,99820.55
2017-08-23T12:58:05.457Z,99818.69
2017-08-23T13:00:33.533Z,99813.92
2017-08-23T13:03:01.376Z,99813.99
2017-08-23T13:05:29.269Z,99827.91
2017-08-23T13:07:57.343Z,99822.84
2017-08-23T13:10:25.004Z,99809.84
2017-08-23T13:12:52.978Z,99808.63
2017-08-23T13:15:20.738Z,99819.98
2017-08-23T13:17:48.449Z,99811.84
2017-08-23T13:20:16.371Z,99821.61
2017-08-23T13:22:44.126Z,99806.53
2017-08-23T13:25:11.978Z,99805.00
2017-08-23T13:27:39.841Z,99807.02
2017-08-23T13:30:07.531Z,99807.16
2017-08-23T13:32:35.330Z,99811.50
2017-08-23T13:35:03.264Z,99808.39
2017-08-23T13:37:30.918Z,99815.83
2017-08-23T13:39:58.609Z,99817.48
2017-08-23T13:42:26.443Z,99813.44
2017-08-23T13:44:54.298Z,99823.33
2017-08-23T13:47:22.190Z,99813.64
2017-08-23T13:49:50.250Z,99819.54
2017-08-23T13:52:17.922Z,99824.84
2017-08-23T13:54:45.785Z,99813.64
2017-08-23T13:57:13.657Z,99820.06
2017-08-23T13:59:41.473Z,99822.25
2017-08-23T14:02:09.276Z,99811.70
2017-08-23T14:04:37.203Z,99817.63
2017-08-23T14:07:05.221Z,99817.97
2017-08-23T14:09:32.887Z,99821.59
2017-08-23T14:12:00.957Z,99819.77
2017-08-23T14:14:28.676Z,99820.23
2017-08-23T14:16:56.484Z,99823.81
2017-08-23T14:19:24.353Z,99823.22
2017-08-23T14:21:52.322Z,99829.51
2017-08-23T14:24:20.263Z,99829.84
2017-08-23T14:26:48.011Z,99830.34
2017-08-23T14:29:16.025Z,99823.50
2017-08-23T14:31:43.862Z,99819.83
2017-08-23T14:34:12.993Z,99816.96
2017-08-23T14:36:40.640Z,99817.10
2017-08-23T14:39:10.152Z,99828.00
2017-08-23T14:41:38.026Z,99823.14
2017-08-23T14:44:07.679Z,99827.95
2017-08-23T14:46:35.270Z,99833.01
2017-08-23T14:49:03.056Z,99833.45
2017-08-23T14:51:30.902Z,99832.16
2017-08-23T14:53:59.594Z,99832.20
2017-08-23T14:56:27.392Z,99832.87
2017-08-23T14:58:55.144Z,99835.56
2017-08-23T15:01:24.277Z,99840.19
2017-08-23T15:03:52.719Z,99842.63
2017-08-23T15:06:20.380Z,99840.63
2017-08-23T15:08:48.103Z,99842.95
2017-08-23T15:11:15.921Z,99836.95
2017-08-23T15:13:44.530Z,99840.83
2017-08-23T15:16:13.029Z,99843.91
2017-08-23T15:18:42.323Z,99838.46
2017-08-23T15:21:10.655Z,99843.13
2017-08-23T15:23:38.629Z,99850.30
2017-08-23T15:26:06.370Z,99847.65
2017-08-23T15:28:34.029Z,99841.56
2017-08-23T15:31:01.712Z,99843.34
2017-08-23T15:33:29.364Z,99846.12
2017-08-23T15:35:56.961Z,99854.98
2017-08-23T15:38:24.699Z,99850.10
2017-08-23T15:40:52.476Z,99850.48
2017-08-23T15:43:20.430Z,99855.63
2017-08-23T15:45:48.499Z,99849.29
2017-08-23T15:48:16.227Z,99850.22
2017-08-23T15:50:44.020Z,99848.77
2017-08-23T15:53:11.896Z,99856.70
2017-08-23T15:55:39.971Z,99863.40
2017-08-23T15:58:07.628Z,99847.91
2017-08-23T16:00:35.494Z,99863.56
2017-08-23T16:03:03.350Z,99864.84
2017-08-23T16:05:31.021Z,99868.83
2017-08-23T16:07:58.764Z,99866.97
2017-08-23T16:10:26.726Z,99872.03
2017-08-23T16:12:54.424Z,99872.30
2017-08-23T16:15:22.264Z,99873.23
2017-08-23T16:17:49.955Z,99873.70
2017-08-23T16:20:17.536Z,99884.14
2017-08-23T16:22:45.141Z,99879.70
2017-08-23T16:25:13.045Z,99879.77
2017-08-23T16:27:41.009Z,99884.55
2017-08-23T16:30:08.612Z,99884.80
2017-08-23T16:32:36.510Z,99882.59
2017-08-23T16:35:04.427Z,99883.55
2017-08-23T16:37:32.118Z,99895.57
2017-08-23T16:40:00.111Z,99899.38
2017-08-23T16:42:27.738Z,99897.11
2017-08-23T16:44:55.358Z,99894.23
2017-08-23T16:47:22.984Z,99898.26
2017-08-23T16:49:50.980Z,99904.96
2017-08-23T16:52:18.569Z,99906.95
2017-08-23T16:54:46.461Z,99907.38
2017-08-23T16:57:14.182Z,99914.17
2017-08-23T16:59:41.838Z,99911.27
2017-08-23T17:02:10.117Z,99918.43
2017-08-23T17:04:37.835Z,99916.52
2017-08-23T17:07:05.649Z,99926.02
2017-08-23T17:09:33.297Z,99930.61
2017-08-23T17:12:00.973Z,99928.12
2017-08-23T17:14:28.554Z,99930.84
2017-08-23T17:16:56.196Z,99937.01
2017-08-23T17:19:24.014Z,99939.42
2017-08-23T17:21:51.876Z,99945.41
2017-08-23T17:24:19.696Z,99942.86
2017-08-23T17:26:47.556Z,99943.62
2017-08-23T17:29:15.148Z,99945.29
2017-08-23T17:31:42.891Z,99946.43
2017-08-23T17:34:10.467Z,99942.25
2017-08-23T17:36:38.214Z,99951.05
2017-08-23T17:39:05.875Z,99957.23
2017-08-23T17:41:33.521Z,99956.91
2017-08-23T17:44:01.197Z,99961.59
2017-08-23T17:46:28.859Z,99963.08
2017-08-23T17:48:56.520Z,99959.55
2017-08-23T17:51:24.359Z,99963.17
2017-08-23T17:53:52.040Z,99979.11
2017-08-23T17:56:19.637Z,99986.52
2017-08-23T17:58:47.373Z,99983.83
2017-08-23T18:01:15.039Z,99979.63
2017-08-23T18:03:42.680Z,99991.05
2017-08-23T18:06:10.488Z,100002.09
2017-08-23T18:08:38.132Z,100001.97
2017-08-23T18:11:05.883Z,100002.67
2017-08-23T18:13:33.549Z,100003.19
2017-08-23T18:16:01.625Z,99998.84
2017-08-23T18:18:29.276Z,100014.88
2017-08-23T18:20:56.873Z,100015.71
2017-08-23T18:23:24.519Z,100020.34
2017-08-23T18:25:52.270Z,100023.19
2017-08-23T18:28:20.139Z,100031.89
2017-08-23T18:30:48.209Z,100028.36
2017-08-23T18:33:16.044Z,100033.54
2017-08-23T18:35:43.636Z,100036.41
2017-08-23T18:38:11.404Z,100040.45
2017-08-23T18:40:39.063Z,100040.70
2017-08-23T18:43:06.718Z,100045.12
2017-08-23T18:45:34.784Z,100045.76
2017-08-23T18:48:02.523Z,100048.40
2017-08-23T18:50:30.325Z,100059.09
2017-08-23T18:52:57.962Z,100064.80
2017-08-23T18:55:25.650Z,100063.72
2017-08-23T18:57:53.304Z,100059.30
2017-08-23T19:00:20.978Z,100061.13
2017-08-23T19:02:48.704Z,100064.22
2017-08-23T19:05:16.330Z,100059.89
2017-08-23T19:07:43.974Z,100061.91
2017-08-23T19:10:11.624Z,100070.97
2017-08-23T19:12:39.222Z,100074.98
2017-08-23T19:15:06.945Z,100066.23
2017-08-23T19:17:34.813Z,100072.11
2017-08-23T19:20:02.619Z,100070.65
2017-08-23T19:22:30.346Z,100072.73
2017-08-23T19:24:58.006Z,100074.00
2017-08-23T19:27:25.750Z,100075.20
2017-08-23T19:29:53.743Z,100071.73
2017-08-23T19:32:21.397Z,100077.81
2017-08-23T19:34:49.025Z,100081.66
2017-08-23T19:37:16.931Z,100077.99
2017-08-23T19:39:44.805Z,100080.13
2017-08-23T19:42:12.652Z,100083.45
2017-08-23T19:44:40.329Z,100082.06
2017-08-23T19:47:08.419Z,100085.47
2017-08-23T19:49:36.631Z,100091.03
2017-08-23T19:52:04.624Z,100089.27
2017-08-23T19:54:32.521Z,100095.03
2017-08-23T19:57:00.685Z,100097.89
2017-08-23T19:59:28.646Z,100098.81
2017-08-23T20:01:56.421Z,100095.91
2017-08-23T20:04:24.165Z,100100.08
2017-08-23T20:06:52.175Z,100100.66
2017-08-23T20:09:20.280Z,100106.77
2017-08-23T20:11:48.241Z,100108.80
2017-08-23T20:14:16.362Z,100107.48
2017-08-23T20:16:44.458Z,100106.05
2017-08-23T20:19:12.747Z,100103.58
2017-08-23T20:21:40.778Z,100109.05
2017-08-23T20:24:08.643Z,100107.91
2017-08-23T20:26:36.323Z,100111.64
2017-08-23T20:29:04.348Z,100106.03
2017-08-23T20:31:32.257Z,100112.29
2017-08-23T20:33:59.990Z,100112.39
2017-08-23T20:36:27.641Z,100116.42
2017-08-23T20:38:55.246Z,100117.31
2017-08-23T20:41:22.902Z,100119.71
2017-08-23T20:43:50.980Z,100116.28
2017-08-23T20:46:18.619Z,100116.17
2017-08-23T20:48:46.478Z,100128.25
2017-08-23T20:51:14.167Z,100124.72
2017-08-23T20:53:41.893Z,100127.94
2017-08-23T20:56:09.488Z,100124.67
2017-08-23T20:58:37.422Z,100125.49
2017-08-23T21:01:05.018Z,100133.08
2017-08-23T21:03:32.681Z,100131.64
2017-08-23T21:06:00.536Z,100132.97
2017-08-23T21:10:55.051Z,100130.27
2017-08-23T21:13:22.694Z,100137.91
2017-08-23T21:15:50.383Z,100130.16
2017-08-23T21:18:19.009Z,100125.05
2017-08-23T21:20:48.565Z,100130.92
2017-08-23T21:23:16.238Z,100142.81
2017-08-23T21:25:43.959Z,100139.56
2017-08-23T21:28:11.967Z,100135.64
2017-08-23T21:30:39.631Z,100141.81
2017-08-23T21:33:07.499Z,100140.68
2017-08-23T21:35:35.162Z,100139.27
2017-08-23T21:38:02.746Z,100142.67
2017-08-23T21:40:30.589Z,100139.45
2017-08-23T21:42:58.407Z,100137.02
2017-08-23T21:45:26.390Z,100144.17
2017-08-23T21:47:54.284Z,100140.28
2017-08-23T21:50:21.941Z,100143.98
2017-08-23T21:52:49.607Z,100136.08
2017-08-23T21:55:17.196Z,100140.70
2017-08-23T21:57:44.811Z,100150.20
2017-08-23T22:00:12.791Z,100151.00
2017-08-23T22:02:40.460Z,100154.34
2017-08-23T22:05:08.333Z,100162.27
2017-08-23T22:07:35.921Z,100163.61
2017-08-23T22:10:03.655Z,100166.80
2017-08-23T22:12:31.718Z,100163.72
2017-08-23T22:14:59.397Z,100162.17
2017-08-23T22:17:27.117Z,100163.66
2017-08-23T22:19:54.907Z,100160.41
2017-08-23T22:22:22.579Z,100158.86
2017-08-23T22:24:50.243Z,100159.04
2017-08-23T22:27:18.110Z,100162.55
2017-08-23T22:29:45.771Z,100163.27
2017-08-23T22:32:13.494Z,100164.77
2017-08-23T22:34:41.299Z,100160.77
2017-08-23T22:37:09.028Z,100165.04
2017-08-23T22:39:36.639Z,100164.06
2017-08-23T22:42:04.702Z,100159.61
2017-08-23T22:44:32.289Z,100159.52
2017-08-23T22:46:59.940Z,100160.56
2017-08-23T22:49:27.730Z,100162.50
2017-08-23T22:51:55.347Z,100163.10
2017-08-23T22:54:23.001Z,100162.98
2017-08-23T22:56:50.660Z,100157.17
2017-08-23T22:59:18.333Z,100152.45
2017-08-23T23:01:45.992Z,100159.80
2017-08-23T23:04:14.090Z,100166.06
2017-08-23T23:06:41.922Z,100160.91
2017-08-23T23:09:09.524Z,100151.86
2017-08-23T23:11:37.160Z,100158.09
2017-08-23T23:14:05.102Z,100154.75
2017-08-23T23:16:32.775Z,100161.61
2017-08-23T23:19:00.862Z,100158.66
2017-08-23T23:21:28.582Z,100155.98
2017-08-23T23:23:56.181Z,100161.42
2017-08-23T23:26:24.039Z,100158.97
2017-08-23T23:28:52.123Z,100157.37
2017-08-23T23:31:20.125Z,100157.73
2017-08-23T23:33:48.064Z,100156.65
2017-08-23T23:36:15.926Z,100162.30
2017-08-23T23:38:43.774Z,100160.30
2017-08-23T23:41:11.511Z,100157.56
2017-08-23T23:43:39.532Z,100163.69
2017-08-23T23:46:07.367Z,100164.09
2017-08-23T23:48:35.236Z,100168.06
2017-08-23T23:51:02.846Z,100171.23
2017-08-23T23:53:30.675Z,100170.52
2017-08-23T23:55:58.441Z,100179.59
2017-08-23T23:58:26.117Z,100177.05
